sensor_id;sensor_type;location;lat;lon;timestamp;P1;durP1;ratioP1;P2;durP2;ratioP2
19942;SDS011;10133;50.956;17.276;2023-02-12T00:00:45;36.30;;;19.80;;
19942;SDS011;10133;50.956;17.276;2023-02-12T00:03:12;35.90;;;19.07;;
19942;SDS011;10133;50.956;17.276;2023-02-12T00:05:39;34.80;;;19.17;;
19942;SDS011;10133;50.956;17.276;2023-02-12T00:08:07;33.57;;;18.83;;
19942;SDS011;10133;50.956;17.276;2023-02-12T00:10:34;32.27;;;19.47;;
19942;SDS011;10133;50.956;17.276;2023-02-12T00:13:06;34.83;;;18.87;;
19942;SDS011;10133;50.956;17.276;2023-02-12T00:15:33;33.03;;;18.87;;
19942;SDS011;10133;50.956;17.276;2023-02-12T00:18:00;35.93;;;19.23;;
19942;SDS011;10133;50.956;17.276;2023-02-12T00:20:27;39.03;;;20.67;;
19942;SDS011;10133;50.956;17.276;2023-02-12T00:22:53;39.33;;;20.50;;
19942;SDS011;10133;50.956;17.276;2023-02-12T00:25:20;34.93;;;19.33;;
19942;SDS011;10133;50.956;17.276;2023-02-12T00:27:47;36.87;;;19.40;;
19942;SDS011;10133;50.956;17.276;2023-02-12T00:30:15;35.10;;;19.33;;
19942;SDS011;10133;50.956;17.276;2023-02-12T00:32:43;35.87;;;18.57;;
19942;SDS011;10133;50.956;17.276;2023-02-12T00:35:11;36.27;;;19.00;;
19942;SDS011;10133;50.956;17.276;2023-02-12T00:37:38;35.80;;;18.10;;
19942;SDS011;10133;50.956;17.276;2023-02-12T00:40:05;34.90;;;18.33;;
19942;SDS011;10133;50.956;17.276;2023-02-12T00:42:32;30.50;;;16.53;;
19942;SDS011;10133;50.956;17.276;2023-02-12T00:44:59;32.00;;;17.90;;
19942;SDS011;10133;50.956;17.276;2023-02-12T00:47:26;31.20;;;16.40;;
19942;SDS011;10133;50.956;17.276;2023-02-12T00:49:53;28.57;;;16.13;;
19942;SDS011;10133;50.956;17.276;2023-02-12T00:52:20;29.67;;;16.43;;
19942;SDS011;10133;50.956;17.276;2023-02-12T00:54:47;28.93;;;15.53;;
19942;SDS011;10133;50.956;17.276;2023-02-12T00:57:14;31.67;;;16.37;;
19942;SDS011;10133;50.956;17.276;2023-02-12T00:59:40;31.97;;;17.07;;
19942;SDS011;10133;50.956;17.276;2023-02-12T01:02:08;31.03;;;16.23;;
19942;SDS011;10133;50.956;17.276;2023-02-12T01:04:35;29.63;;;15.77;;
19942;SDS011;10133;50.956;17.276;2023-02-12T01:07:02;28.40;;;15.37;;
19942;SDS011;10133;50.956;17.276;2023-02-12T01:09:28;29.50;;;15.30;;
19942;SDS011;10133;50.956;17.276;2023-02-12T01:11:55;28.20;;;15.33;;
19942;SDS011;10133;50.956;17.276;2023-02-12T01:14:22;27.17;;;15.33;;
19942;SDS011;10133;50.956;17.276;2023-02-12T01:16:49;35.53;;;16.83;;
19942;SDS011;10133;50.956;17.276;2023-02-12T01:19:16;29.33;;;16.30;;
19942;SDS011;10133;50.956;17.276;2023-02-12T01:21:43;28.27;;;16.60;;
19942;SDS011;10133;50.956;17.276;2023-02-12T01:24:10;27.63;;;15.60;;
19942;SDS011;10133;50.956;17.276;2023-02-12T01:26:36;32.90;;;17.00;;
19942;SDS011;10133;50.956;17.276;2023-02-12T01:29:04;34.10;;;17.13;;
19942;SDS011;10133;50.956;17.276;2023-02-12T01:31:35;32.33;;;15.97;;
19942;SDS011;10133;50.956;17.276;2023-02-12T01:34:04;31.67;;;16.97;;
19942;SDS011;10133;50.956;17.276;2023-02-12T01:36:32;33.73;;;17.07;;
19942;SDS011;10133;50.956;17.276;2023-02-12T01:38:59;33.80;;;17.80;;
19942;SDS011;10133;50.956;17.276;2023-02-12T01:41:49;39.57;;;19.13;;
19942;SDS011;10133;50.956;17.276;2023-02-12T01:46:49;37.97;;;18.27;;
19942;SDS011;10133;50.956;17.276;2023-02-12T01:49:23;41.70;;;19.40;;
19942;SDS011;10133;50.956;17.276;2023-02-12T01:52:12;37.33;;;18.33;;
19942;SDS011;10133;50.956;17.276;2023-02-12T01:54:42;34.83;;;16.57;;
19942;SDS011;10133;50.956;17.276;2023-02-12T01:57:09;33.87;;;16.87;;
19942;SDS011;10133;50.956;17.276;2023-02-12T01:59:39;36.20;;;17.73;;
19942;SDS011;10133;50.956;17.276;2023-02-12T02:02:10;31.83;;;16.10;;
19942;SDS011;10133;50.956;17.276;2023-02-12T02:04:42;34.60;;;16.20;;
19942;SDS011;10133;50.956;17.276;2023-02-12T02:07:15;30.73;;;16.10;;
19942;SDS011;10133;50.956;17.276;2023-02-12T02:09:42;33.53;;;16.57;;
19942;SDS011;10133;50.956;17.276;2023-02-12T02:12:10;29.87;;;16.43;;
19942;SDS011;10133;50.956;17.276;2023-02-12T02:15:00;27.17;;;16.00;;
19942;SDS011;10133;50.956;17.276;2023-02-12T02:23:33;34.13;;;16.63;;
19942;SDS011;10133;50.956;17.276;2023-02-12T02:32:02;31.30;;;16.73;;
19942;SDS011;10133;50.956;17.276;2023-02-12T02:37:17;33.50;;;17.00;;
19942;SDS011;10133;50.956;17.276;2023-02-12T02:39:51;32.83;;;17.73;;
19942;SDS011;10133;50.956;17.276;2023-02-12T02:45:14;33.27;;;16.50;;
19942;SDS011;10133;50.956;17.276;2023-02-12T02:47:49;31.73;;;16.50;;
19942;SDS011;10133;50.956;17.276;2023-02-12T02:50:26;30.27;;;15.67;;
19942;SDS011;10133;50.956;17.276;2023-02-12T02:52:56;31.20;;;15.27;;
19942;SDS011;10133;50.956;17.276;2023-02-12T02:55:32;29.20;;;15.13;;
19942;SDS011;10133;50.956;17.276;2023-02-12T02:58:08;28.30;;;15.57;;
19942;SDS011;10133;50.956;17.276;2023-02-12T03:00:46;37.60;;;17.07;;
19942;SDS011;10133;50.956;17.276;2023-02-12T03:06:26;28.63;;;14.60;;
19942;SDS011;10133;50.956;17.276;2023-02-12T03:08:59;31.53;;;15.13;;
19942;SDS011;10133;50.956;17.276;2023-02-12T03:11:31;36.60;;;17.00;;
19942;SDS011;10133;50.956;17.276;2023-02-12T03:14:07;33.50;;;15.73;;
19942;SDS011;10133;50.956;17.276;2023-02-12T03:17:04;33.10;;;16.00;;
19942;SDS011;10133;50.956;17.276;2023-02-12T03:19:41;30.73;;;14.93;;
19942;SDS011;10133;50.956;17.276;2023-02-12T03:22:27;37.57;;;16.60;;
19942;SDS011;10133;50.956;17.276;2023-02-12T03:27:46;33.67;;;15.70;;
19942;SDS011;10133;50.956;17.276;2023-02-12T03:30:41;30.33;;;15.90;;
19942;SDS011;10133;50.956;17.276;2023-02-12T03:36:09;33.27;;;16.63;;
19942;SDS011;10133;50.956;17.276;2023-02-12T03:38:48;27.17;;;14.20;;
19942;SDS011;10133;50.956;17.276;2023-02-12T03:41:23;35.47;;;16.60;;
19942;SDS011;10133;50.956;17.276;2023-02-12T03:44:07;34.87;;;15.47;;
19942;SDS011;10133;50.956;17.276;2023-02-12T03:50:01;30.47;;;13.67;;
19942;SDS011;10133;50.956;17.276;2023-02-12T03:52:32;34.07;;;14.17;;
19942;SDS011;10133;50.956;17.276;2023-02-12T03:54:59;31.10;;;12.77;;
19942;SDS011;10133;50.956;17.276;2023-02-12T03:57:28;31.37;;;13.93;;
19942;SDS011;10133;50.956;17.276;2023-02-12T04:00:04;30.17;;;13.77;;
19942;SDS011;10133;50.956;17.276;2023-02-12T04:02:34;27.87;;;13.17;;
19942;SDS011;10133;50.956;17.276;2023-02-12T04:05:05;31.37;;;13.23;;
19942;SDS011;10133;50.956;17.276;2023-02-12T04:07:33;28.87;;;13.60;;
19942;SDS011;10133;50.956;17.276;2023-02-12T04:10:02;28.77;;;13.97;;
19942;SDS011;10133;50.956;17.276;2023-02-12T04:12:32;30.03;;;14.67;;
19942;SDS011;10133;50.956;17.276;2023-02-12T04:17:50;28.37;;;12.57;;
19942;SDS011;10133;50.956;17.276;2023-02-12T04:20:48;27.93;;;12.50;;
19942;SDS011;10133;50.956;17.276;2023-02-12T04:36:34;28.27;;;13.60;;
19942;SDS011;10133;50.956;17.276;2023-02-12T04:39:10;32.33;;;12.97;;
19942;SDS011;10133;50.956;17.276;2023-02-12T04:41:42;29.87;;;13.33;;
19942;SDS011;10133;50.956;17.276;2023-02-12T04:44:28;28.43;;;12.87;;
19942;SDS011;10133;50.956;17.276;2023-02-12T04:46:57;34.10;;;12.80;;
19942;SDS011;10133;50.956;17.276;2023-02-12T04:49:24;30.10;;;11.97;;
19942;SDS011;10133;50.956;17.276;2023-02-12T04:51:52;29.23;;;11.37;;
19942;SDS011;10133;50.956;17.276;2023-02-12T04:54:20;31.90;;;12.10;;
19942;SDS011;10133;50.956;17.276;2023-02-12T04:56:48;30.27;;;12.17;;
19942;SDS011;10133;50.956;17.276;2023-02-12T04:59:16;27.13;;;11.87;;
19942;SDS011;10133;50.956;17.276;2023-02-12T05:01:43;34.77;;;12.87;;
19942;SDS011;10133;50.956;17.276;2023-02-12T05:04:12;35.53;;;11.97;;
19942;SDS011;10133;50.956;17.276;2023-02-12T05:06:40;34.37;;;10.60;;
19942;SDS011;10133;50.956;17.276;2023-02-12T05:09:09;27.00;;;10.77;;
19942;SDS011;10133;50.956;17.276;2023-02-12T05:11:41;31.50;;;12.37;;
19942;SDS011;10133;50.956;17.276;2023-02-12T05:14:08;31.90;;;12.93;;
19942;SDS011;10133;50.956;17.276;2023-02-12T05:16:35;26.47;;;12.17;;
19942;SDS011;10133;50.956;17.276;2023-02-12T05:19:02;32.03;;;12.73;;
19942;SDS011;10133;50.956;17.276;2023-02-12T05:21:29;31.97;;;11.10;;
19942;SDS011;10133;50.956;17.276;2023-02-12T05:23:56;38.43;;;12.60;;
19942;SDS011;10133;50.956;17.276;2023-02-12T05:26:23;31.87;;;12.93;;
19942;SDS011;10133;50.956;17.276;2023-02-12T05:28:49;28.07;;;11.63;;
19942;SDS011;10133;50.956;17.276;2023-02-12T05:31:18;28.13;;;12.17;;
19942;SDS011;10133;50.956;17.276;2023-02-12T05:33:47;32.63;;;11.80;;
19942;SDS011;10133;50.956;17.276;2023-02-12T05:36:16;26.07;;;12.23;;
19942;SDS011;10133;50.956;17.276;2023-02-12T05:38:45;28.10;;;11.20;;
19942;SDS011;10133;50.956;17.276;2023-02-12T05:41:14;27.77;;;12.27;;
19942;SDS011;10133;50.956;17.276;2023-02-12T05:43:43;33.13;;;13.63;;
19942;SDS011;10133;50.956;17.276;2023-02-12T05:46:14;28.80;;;12.63;;
19942;SDS011;10133;50.956;17.276;2023-02-12T05:48:42;33.67;;;12.90;;
19942;SDS011;10133;50.956;17.276;2023-02-12T05:51:15;30.97;;;12.83;;
19942;SDS011;10133;50.956;17.276;2023-02-12T05:53:47;29.87;;;11.67;;
19942;SDS011;10133;50.956;17.276;2023-02-12T05:56:23;35.43;;;13.27;;
19942;SDS011;10133;50.956;17.276;2023-02-12T05:58:58;32.73;;;12.93;;
19942;SDS011;10133;50.956;17.276;2023-02-12T06:01:30;36.53;;;12.60;;
19942;SDS011;10133;50.956;17.276;2023-02-12T06:03:59;38.63;;;12.80;;
19942;SDS011;10133;50.956;17.276;2023-02-12T06:06:28;33.70;;;12.73;;
19942;SDS011;10133;50.956;17.276;2023-02-12T06:08:56;30.97;;;13.20;;
19942;SDS011;10133;50.956;17.276;2023-02-12T06:11:23;36.50;;;12.63;;
19942;SDS011;10133;50.956;17.276;2023-02-12T06:13:50;32.90;;;12.80;;
19942;SDS011;10133;50.956;17.276;2023-02-12T06:18:46;37.33;;;13.40;;
19942;SDS011;10133;50.956;17.276;2023-02-12T06:21:14;42.33;;;14.17;;
19942;SDS011;10133;50.956;17.276;2023-02-12T06:23:41;41.73;;;14.23;;
19942;SDS011;10133;50.956;17.276;2023-02-12T06:26:08;34.57;;;13.53;;
19942;SDS011;10133;50.956;17.276;2023-02-12T06:28:35;46.70;;;15.50;;
19942;SDS011;10133;50.956;17.276;2023-02-12T06:31:02;47.83;;;15.17;;
19942;SDS011;10133;50.956;17.276;2023-02-12T06:33:30;37.10;;;15.17;;
19942;SDS011;10133;50.956;17.276;2023-02-12T06:35:58;33.53;;;13.03;;
19942;SDS011;10133;50.956;17.276;2023-02-12T06:38:29;32.77;;;12.60;;
19942;SDS011;10133;50.956;17.276;2023-02-12T06:40:55;29.97;;;13.83;;
19942;SDS011;10133;50.956;17.276;2023-02-12T06:43:22;26.00;;;12.57;;
19942;SDS011;10133;50.956;17.276;2023-02-12T06:45:50;25.87;;;12.63;;
19942;SDS011;10133;50.956;17.276;2023-02-12T06:48:17;34.97;;;13.40;;
19942;SDS011;10133;50.956;17.276;2023-02-12T06:50:44;31.77;;;12.27;;
19942;SDS011;10133;50.956;17.276;2023-02-12T06:53:10;25.07;;;11.73;;
19942;SDS011;10133;50.956;17.276;2023-02-12T06:55:37;29.80;;;12.90;;
19942;SDS011;10133;50.956;17.276;2023-02-12T06:58:04;28.60;;;12.10;;
19942;SDS011;10133;50.956;17.276;2023-02-12T07:00:31;26.13;;;12.87;;
19942;SDS011;10133;50.956;17.276;2023-02-12T07:02:58;27.47;;;12.40;;
19942;SDS011;10133;50.956;17.276;2023-02-12T07:05:25;31.83;;;13.67;;
19942;SDS011;10133;50.956;17.276;2023-02-12T07:07:52;23.67;;;12.07;;
19942;SDS011;10133;50.956;17.276;2023-02-12T07:10:19;25.00;;;11.73;;
19942;SDS011;10133;50.956;17.276;2023-02-12T07:12:46;27.20;;;13.20;;
19942;SDS011;10133;50.956;17.276;2023-02-12T07:15:13;28.87;;;13.47;;
19942;SDS011;10133;50.956;17.276;2023-02-12T07:17:40;30.50;;;14.83;;
19942;SDS011;10133;50.956;17.276;2023-02-12T07:20:07;23.40;;;12.33;;
19942;SDS011;10133;50.956;17.276;2023-02-12T07:22:35;28.60;;;13.77;;
19942;SDS011;10133;50.956;17.276;2023-02-12T07:25:02;28.97;;;13.90;;
19942;SDS011;10133;50.956;17.276;2023-02-12T07:27:29;24.83;;;13.67;;
19942;SDS011;10133;50.956;17.276;2023-02-12T07:29:56;34.03;;;15.10;;
19942;SDS011;10133;50.956;17.276;2023-02-12T07:32:23;31.07;;;13.63;;
19942;SDS011;10133;50.956;17.276;2023-02-12T07:34:50;33.83;;;14.63;;
19942;SDS011;10133;50.956;17.276;2023-02-12T07:37:16;36.47;;;14.97;;
19942;SDS011;10133;50.956;17.276;2023-02-12T07:39:48;32.03;;;15.77;;
19942;SDS011;10133;50.956;17.276;2023-02-12T07:42:15;34.20;;;15.73;;
19942;SDS011;10133;50.956;17.276;2023-02-12T07:44:42;35.23;;;14.87;;
19942;SDS011;10133;50.956;17.276;2023-02-12T07:47:10;33.00;;;15.57;;
19942;SDS011;10133;50.956;17.276;2023-02-12T07:49:36;34.50;;;14.33;;
19942;SDS011;10133;50.956;17.276;2023-02-12T07:52:03;36.60;;;15.50;;
19942;SDS011;10133;50.956;17.276;2023-02-12T07:54:30;35.07;;;14.47;;
19942;SDS011;10133;50.956;17.276;2023-02-12T07:56:57;31.77;;;15.47;;
19942;SDS011;10133;50.956;17.276;2023-02-12T07:59:25;30.60;;;14.67;;
19942;SDS011;10133;50.956;17.276;2023-02-12T08:01:54;34.50;;;16.20;;
19942;SDS011;10133;50.956;17.276;2023-02-12T08:04:22;39.87;;;17.07;;
19942;SDS011;10133;50.956;17.276;2023-02-12T08:06:51;31.20;;;15.73;;
19942;SDS011;10133;50.956;17.276;2023-02-12T08:09:21;37.90;;;17.63;;
19942;SDS011;10133;50.956;17.276;2023-02-12T08:11:52;36.27;;;17.90;;
19942;SDS011;10133;50.956;17.276;2023-02-12T08:14:20;45.07;;;19.87;;
19942;SDS011;10133;50.956;17.276;2023-02-12T08:16:47;45.03;;;18.27;;
19942;SDS011;10133;50.956;17.276;2023-02-12T08:19:15;36.07;;;14.77;;
19942;SDS011;10133;50.956;17.276;2023-02-12T08:21:48;39.33;;;15.20;;
19942;SDS011;10133;50.956;17.276;2023-02-12T08:24:19;32.30;;;13.27;;
19942;SDS011;10133;50.956;17.276;2023-02-12T08:26:49;30.47;;;12.37;;
19942;SDS011;10133;50.956;17.276;2023-02-12T08:29:18;36.83;;;12.93;;
19942;SDS011;10133;50.956;17.276;2023-02-12T08:31:47;34.83;;;12.83;;
19942;SDS011;10133;50.956;17.276;2023-02-12T08:34:16;28.10;;;12.43;;
19942;SDS011;10133;50.956;17.276;2023-02-12T08:36:46;33.60;;;13.27;;
19942;SDS011;10133;50.956;17.276;2023-02-12T08:39:15;34.00;;;12.47;;
19942;SDS011;10133;50.956;17.276;2023-02-12T08:41:43;32.73;;;12.87;;
19942;SDS011;10133;50.956;17.276;2023-02-12T08:44:10;29.40;;;12.60;;
19942;SDS011;10133;50.956;17.276;2023-02-12T08:46:39;30.57;;;12.10;;
19942;SDS011;10133;50.956;17.276;2023-02-12T08:49:13;32.93;;;11.60;;
19942;SDS011;10133;50.956;17.276;2023-02-12T08:51:52;32.87;;;11.90;;
19942;SDS011;10133;50.956;17.276;2023-02-12T08:54:21;32.07;;;13.20;;
19942;SDS011;10133;50.956;17.276;2023-02-12T08:56:53;28.80;;;13.30;;
19942;SDS011;10133;50.956;17.276;2023-02-12T08:59:24;30.33;;;12.53;;
19942;SDS011;10133;50.956;17.276;2023-02-12T09:01:52;35.10;;;13.37;;
19942;SDS011;10133;50.956;17.276;2023-02-12T09:04:21;34.30;;;12.87;;
19942;SDS011;10133;50.956;17.276;2023-02-12T09:06:50;31.43;;;13.13;;
19942;SDS011;10133;50.956;17.276;2023-02-12T09:09:18;31.73;;;12.63;;
19942;SDS011;10133;50.956;17.276;2023-02-12T09:11:45;38.57;;;13.77;;
19942;SDS011;10133;50.956;17.276;2023-02-12T09:14:13;35.90;;;13.03;;
19942;SDS011;10133;50.956;17.276;2023-02-12T09:16:42;30.27;;;12.70;;
19942;SDS011;10133;50.956;17.276;2023-02-12T09:19:10;30.63;;;12.47;;
19942;SDS011;10133;50.956;17.276;2023-02-12T09:21:38;26.37;;;11.43;;
19942;SDS011;10133;50.956;17.276;2023-02-12T09:24:06;26.40;;;11.40;;
19942;SDS011;10133;50.956;17.276;2023-02-12T09:26:33;30.70;;;11.37;;
19942;SDS011;10133;50.956;17.276;2023-02-12T09:29:01;28.20;;;11.30;;
19942;SDS011;10133;50.956;17.276;2023-02-12T09:31:30;25.23;;;10.53;;
19942;SDS011;10133;50.956;17.276;2023-02-12T09:34:02;26.63;;;9.87;;
19942;SDS011;10133;50.956;17.276;2023-02-12T09:36:31;22.47;;;9.73;;
19942;SDS011;10133;50.956;17.276;2023-02-12T09:38:59;27.90;;;10.70;;
19942;SDS011;10133;50.956;17.276;2023-02-12T09:47:35;25.60;;;9.77;;
19942;SDS011;10133;50.956;17.276;2023-02-12T09:50:28;22.13;;;10.00;;
19942;SDS011;10133;50.956;17.276;2023-02-12T09:52:58;26.47;;;9.97;;
19942;SDS011;10133;50.956;17.276;2023-02-12T09:55:27;23.93;;;9.83;;
19942;SDS011;10133;50.956;17.276;2023-02-12T09:57:57;22.27;;;9.53;;
19942;SDS011;10133;50.956;17.276;2023-02-12T10:00:28;22.63;;;9.27;;
19942;SDS011;10133;50.956;17.276;2023-02-12T10:03:00;22.50;;;9.53;;
19942;SDS011;10133;50.956;17.276;2023-02-12T10:05:31;25.33;;;9.30;;
19942;SDS011;10133;50.956;17.276;2023-02-12T10:08:14;24.97;;;9.30;;
19942;SDS011;10133;50.956;17.276;2023-02-12T10:28:17;27.20;;;9.30;;
19942;SDS011;10133;50.956;17.276;2023-02-12T10:31:02;22.67;;;10.57;;
19942;SDS011;10133;50.956;17.276;2023-02-12T10:33:41;29.27;;;10.53;;
19942;SDS011;10133;50.956;17.276;2023-02-12T10:38:48;20.77;;;9.40;;
19942;SDS011;10133;50.956;17.276;2023-02-12T10:41:21;26.03;;;9.97;;
19942;SDS011;10133;50.956;17.276;2023-02-12T10:43:49;20.93;;;9.03;;
19942;SDS011;10133;50.956;17.276;2023-02-12T10:46:17;24.27;;;8.87;;
19942;SDS011;10133;50.956;17.276;2023-02-12T10:48:45;29.47;;;9.77;;
19942;SDS011;10133;50.956;17.276;2023-02-12T10:51:19;32.97;;;11.43;;
19942;SDS011;10133;50.956;17.276;2023-02-12T10:57:19;24.00;;;10.17;;
19942;SDS011;10133;50.956;17.276;2023-02-12T10:59:50;25.43;;;9.63;;
19942;SDS011;10133;50.956;17.276;2023-02-12T11:02:20;24.53;;;10.40;;
19942;SDS011;10133;50.956;17.276;2023-02-12T11:04:58;23.37;;;10.93;;
19942;SDS011;10133;50.956;17.276;2023-02-12T11:07:50;21.53;;;8.53;;
19942;SDS011;10133;50.956;17.276;2023-02-12T11:10:24;25.03;;;10.10;;
19942;SDS011;10133;50.956;17.276;2023-02-12T11:13:03;23.10;;;8.83;;
19942;SDS011;10133;50.956;17.276;2023-02-12T11:15:46;20.10;;;8.50;;
19942;SDS011;10133;50.956;17.276;2023-02-12T11:18:32;21.03;;;8.83;;
19942;SDS011;10133;50.956;17.276;2023-02-12T11:21:07;20.23;;;9.10;;
19942;SDS011;10133;50.956;17.276;2023-02-12T11:23:41;18.80;;;8.60;;
19942;SDS011;10133;50.956;17.276;2023-02-12T11:31:41;22.63;;;8.97;;
19942;SDS011;10133;50.956;17.276;2023-02-12T11:36:43;25.10;;;9.60;;
19942;SDS011;10133;50.956;17.276;2023-02-12T11:39:19;21.60;;;10.57;;
19942;SDS011;10133;50.956;17.276;2023-02-12T11:47:18;30.37;;;12.33;;
19942;SDS011;10133;50.956;17.276;2023-02-12T11:49:53;28.83;;;11.33;;
19942;SDS011;10133;50.956;17.276;2023-02-12T11:52:24;21.80;;;10.73;;
19942;SDS011;10133;50.956;17.276;2023-02-12T11:54:55;23.77;;;10.73;;
19942;SDS011;10133;50.956;17.276;2023-02-12T11:57:34;29.57;;;10.60;;
19942;SDS011;10133;50.956;17.276;2023-02-12T12:03:44;24.47;;;10.57;;
19942;SDS011;10133;50.956;17.276;2023-02-12T12:06:08;20.80;;;8.10;;
19942;SDS011;10133;50.956;17.276;2023-02-12T12:11:20;30.40;;;10.37;;
19942;SDS011;10133;50.956;17.276;2023-02-12T12:16:46;21.37;;;8.80;;
19942;SDS011;10133;50.956;17.276;2023-02-12T12:20:16;17.60;;;7.93;;
19942;SDS011;10133;50.956;17.276;2023-02-12T12:28:32;14.73;;;6.63;;
19942;SDS011;10133;50.956;17.276;2023-02-12T12:33:57;15.20;;;6.97;;
19942;SDS011;10133;50.956;17.276;2023-02-12T12:41:50;15.30;;;6.23;;
19942;SDS011;10133;50.956;17.276;2023-02-12T12:49:58;12.83;;;5.73;;
19942;SDS011;10133;50.956;17.276;2023-02-12T12:52:48;14.37;;;6.13;;
19942;SDS011;10133;50.956;17.276;2023-02-12T12:58:07;14.07;;;6.00;;
19942;SDS011;10133;50.956;17.276;2023-02-12T13:06:33;11.63;;;5.30;;
19942;SDS011;10133;50.956;17.276;2023-02-12T13:18:00;14.17;;;5.10;;
19942;SDS011;10133;50.956;17.276;2023-02-12T13:23:34;13.27;;;5.70;;
19942;SDS011;10133;50.956;17.276;2023-02-12T13:28:47;16.93;;;5.47;;
19942;SDS011;10133;50.956;17.276;2023-02-12T13:31:35;14.03;;;5.17;;
19942;SDS011;10133;50.956;17.276;2023-02-12T13:34:12;16.37;;;4.80;;
19942;SDS011;10133;50.956;17.276;2023-02-12T13:36:40;11.80;;;4.60;;
19942;SDS011;10133;50.956;17.276;2023-02-12T13:45:06;19.97;;;7.00;;
19942;SDS011;10133;50.956;17.276;2023-02-12T13:53:21;18.50;;;6.20;;
19942;SDS011;10133;50.956;17.276;2023-02-12T13:56:05;12.63;;;5.93;;
19942;SDS011;10133;50.956;17.276;2023-02-12T14:03:35;15.80;;;5.43;;
19942;SDS011;10133;50.956;17.276;2023-02-12T14:08:37;13.87;;;4.90;;
19942;SDS011;10133;50.956;17.276;2023-02-12T14:11:17;14.50;;;5.07;;
19942;SDS011;10133;50.956;17.276;2023-02-12T14:16:23;12.27;;;4.50;;
19942;SDS011;10133;50.956;17.276;2023-02-12T14:22:13;12.47;;;4.33;;
19942;SDS011;10133;50.956;17.276;2023-02-12T14:24:57;15.20;;;5.17;;
19942;SDS011;10133;50.956;17.276;2023-02-12T14:30:23;16.30;;;6.40;;
19942;SDS011;10133;50.956;17.276;2023-02-12T14:35:36;16.83;;;6.20;;
19942;SDS011;10133;50.956;17.276;2023-02-12T14:48:52;16.57;;;6.23;;
19942;SDS011;10133;50.956;17.276;2023-02-12T14:53:56;15.67;;;6.50;;
19942;SDS011;10133;50.956;17.276;2023-02-12T14:56:25;18.93;;;6.70;;
19942;SDS011;10133;50.956;17.276;2023-02-12T14:58:54;15.43;;;5.70;;
19942;SDS011;10133;50.956;17.276;2023-02-12T15:01:31;16.80;;;5.80;;
19942;SDS011;10133;50.956;17.276;2023-02-12T15:04:10;16.20;;;5.17;;
19942;SDS011;10133;50.956;17.276;2023-02-12T15:06:59;17.33;;;6.13;;
19942;SDS011;10133;50.956;17.276;2023-02-12T15:12:26;14.53;;;5.40;;
19942;SDS011;10133;50.956;17.276;2023-02-12T15:18:02;16.83;;;5.57;;
19942;SDS011;10133;50.956;17.276;2023-02-12T15:20:42;10.70;;;4.40;;
19942;SDS011;10133;50.956;17.276;2023-02-12T15:26:32;16.60;;;5.30;;
19942;SDS011;10133;50.956;17.276;2023-02-12T15:29:01;13.43;;;5.00;;
19942;SDS011;10133;50.956;17.276;2023-02-12T15:31:29;16.23;;;6.37;;
19942;SDS011;10133;50.956;17.276;2023-02-12T15:33:59;18.00;;;6.83;;
19942;SDS011;10133;50.956;17.276;2023-02-12T15:36:29;17.93;;;6.80;;
19942;SDS011;10133;50.956;17.276;2023-02-12T15:39:02;21.40;;;7.47;;
19942;SDS011;10133;50.956;17.276;2023-02-12T15:43:59;22.00;;;8.13;;
19942;SDS011;10133;50.956;17.276;2023-02-12T15:46:28;21.87;;;9.40;;
19942;SDS011;10133;50.956;17.276;2023-02-12T15:48:55;22.30;;;9.47;;
19942;SDS011;10133;50.956;17.276;2023-02-12T15:51:32;22.90;;;10.00;;
19942;SDS011;10133;50.956;17.276;2023-02-12T15:54:02;25.63;;;9.43;;
19942;SDS011;10133;50.956;17.276;2023-02-12T15:56:31;29.67;;;10.50;;
19942;SDS011;10133;50.956;17.276;2023-02-12T15:59:01;28.07;;;10.70;;
19942;SDS011;10133;50.956;17.276;2023-02-12T16:01:30;27.10;;;9.83;;
19942;SDS011;10133;50.956;17.276;2023-02-12T16:04:00;28.73;;;9.77;;
19942;SDS011;10133;50.956;17.276;2023-02-12T16:06:30;31.33;;;10.00;;
19942;SDS011;10133;50.956;17.276;2023-02-12T16:09:05;23.83;;;9.60;;
19942;SDS011;10133;50.956;17.276;2023-02-12T16:11:41;29.07;;;10.53;;
19942;SDS011;10133;50.956;17.276;2023-02-12T16:14:19;27.20;;;8.47;;
19942;SDS011;10133;50.956;17.276;2023-02-12T16:16:49;31.23;;;8.67;;
19942;SDS011;10133;50.956;17.276;2023-02-12T16:19:22;21.23;;;7.93;;
19942;SDS011;10133;50.956;17.276;2023-02-12T16:24:36;34.10;;;9.93;;
19942;SDS011;10133;50.956;17.276;2023-02-12T16:27:15;32.07;;;8.30;;
19942;SDS011;10133;50.956;17.276;2023-02-12T16:29:48;22.00;;;7.93;;
19942;SDS011;10133;50.956;17.276;2023-02-12T16:42:59;21.20;;;7.07;;
19942;SDS011;10133;50.956;17.276;2023-02-12T16:48:07;21.10;;;6.80;;
19942;SDS011;10133;50.956;17.276;2023-02-12T16:50:42;19.03;;;7.60;;
19942;SDS011;10133;50.956;17.276;2023-02-12T16:55:57;22.90;;;8.27;;
19942;SDS011;10133;50.956;17.276;2023-02-12T16:58:25;21.93;;;8.37;;
19942;SDS011;10133;50.956;17.276;2023-02-12T17:00:54;22.77;;;9.97;;
19942;SDS011;10133;50.956;17.276;2023-02-12T17:03:23;30.90;;;11.80;;
19942;SDS011;10133;50.956;17.276;2023-02-12T17:05:50;33.53;;;12.23;;
19942;SDS011;10133;50.956;17.276;2023-02-12T17:08:19;35.77;;;13.33;;
19942;SDS011;10133;50.956;17.276;2023-02-12T17:10:47;33.83;;;12.30;;
19942;SDS011;10133;50.956;17.276;2023-02-12T17:13:15;28.73;;;11.53;;
19942;SDS011;10133;50.956;17.276;2023-02-12T17:15:44;31.50;;;12.03;;
19942;SDS011;10133;50.956;17.276;2023-02-12T17:18:19;35.00;;;11.80;;
19942;SDS011;10133;50.956;17.276;2023-02-12T17:20:48;26.07;;;11.13;;
19942;SDS011;10133;50.956;17.276;2023-02-12T17:23:19;27.07;;;10.80;;
19942;SDS011;10133;50.956;17.276;2023-02-12T17:25:46;27.77;;;12.27;;
19942;SDS011;10133;50.956;17.276;2023-02-12T17:28:13;28.57;;;12.00;;
19942;SDS011;10133;50.956;17.276;2023-02-12T17:30:41;38.60;;;14.73;;
19942;SDS011;10133;50.956;17.276;2023-02-12T17:33:08;38.63;;;15.57;;
19942;SDS011;10133;50.956;17.276;2023-02-12T17:35:36;30.80;;;12.80;;
19942;SDS011;10133;50.956;17.276;2023-02-12T17:38:04;29.63;;;12.13;;
19942;SDS011;10133;50.956;17.276;2023-02-12T17:40:33;34.00;;;13.33;;
19942;SDS011;10133;50.956;17.276;2023-02-12T17:43:02;32.83;;;12.73;;
19942;SDS011;10133;50.956;17.276;2023-02-12T17:45:30;36.57;;;13.50;;
19942;SDS011;10133;50.956;17.276;2023-02-12T17:47:57;36.20;;;14.07;;
19942;SDS011;10133;50.956;17.276;2023-02-12T17:50:24;36.33;;;14.90;;
19942;SDS011;10133;50.956;17.276;2023-02-12T17:52:51;34.67;;;12.83;;
19942;SDS011;10133;50.956;17.276;2023-02-12T17:55:18;34.67;;;12.87;;
19942;SDS011;10133;50.956;17.276;2023-02-12T17:57:45;31.10;;;12.40;;
19942;SDS011;10133;50.956;17.276;2023-02-12T18:00:17;30.73;;;12.03;;
19942;SDS011;10133;50.956;17.276;2023-02-12T18:02:45;27.53;;;11.73;;
19942;SDS011;10133;50.956;17.276;2023-02-12T18:05:12;29.50;;;11.70;;
19942;SDS011;10133;50.956;17.276;2023-02-12T18:07:39;27.27;;;11.57;;
19942;SDS011;10133;50.956;17.276;2023-02-12T18:10:07;28.07;;;11.77;;
19942;SDS011;10133;50.956;17.276;2023-02-12T18:12:36;32.53;;;13.27;;